ADDS METAR Data INFO
IDs: Format: Raw Decoded Include TAF

Data at: 1935 UTC 19 Jul 2018

METAR for:TUPJ (Beef Isl/Lettsome In, --, WI)
Text:TUPJ 191900Z 13011KT 10SM SCT019 30/26 A3005 RMK Q1017
Temperature: 30.0°C ( 86°F)
Dewpoint: 26.0°C ( 79°F) [RH = 79%]
Pressure (altimeter):30.05 inches Hg (1017.7 mb)
Winds:from the SE (130 degrees) at 13 MPH (11 knots; 5.7 m/s)
Visibility:10 or more sm (16+ km)
Ceiling:at least 12,000 feet AGL
Clouds: scattered clouds at 1900 feet AGL